Time;durP1;ratioP1;P1;durP2;ratioP2;P2;SDS_P1;SDS_P2;PMS_P1;PMS_P2;Temp;Humidity;BMP_temperature;BMP_pressure;BME280_temperature;BME280_humidity;BME280_pressure;Samples;Min_cycle;Max_cycle;Signal;HPM_P1;HPM_P2
2022/06/21 00:02:20;;;;;;;1.00;0.90;;;13.20;99.90;;;;;;5093872;28;20173;-71
2022/06/21 00:04:46;;;;;;;1.20;0.70;;;13.20;99.90;;;;;;5093454;28;20400;-71
2022/06/21 00:07:19;;;;;;;1.10;0.73;;;13.20;99.90;;;;;;5092371;28;20431;-71
2022/06/21 00:09:44;;;;;;;1.00;0.80;;;13.20;99.90;;;;;;5073370;28;20451;-71
2022/06/21 00:12:12;;;;;;;1.00;0.70;;;13.10;99.90;;;;;;5073422;28;20500;-71
2022/06/21 00:14:39;;;;;;;0.90;0.60;;;13.10;99.90;;;;;;5073152;28;20173;-71
2022/06/21 00:17:05;;;;;;;0.90;0.60;;;13.10;99.90;;;;;;5073324;28;20503;-71
2022/06/21 00:19:31;;;;;;;1.47;0.80;;;13.10;99.90;;;;;;5073302;28;20472;-71
2022/06/21 00:21:56;;;;;;;1.00;0.70;;;13.10;99.90;;;;;;5079513;28;20431;-71
2022/06/21 00:24:22;;;;;;;1.20;0.80;;;13.00;99.90;;;;;;5076366;28;20416;-71
2022/06/21 00:26:48;;;;;;;1.10;0.70;;;13.00;99.90;;;;;;5073071;28;20197;-71
2022/06/21 00:29:14;;;;;;;1.37;0.80;;;13.00;99.90;;;;;;5072976;28;20206;-71
2022/06/21 00:31:45;;;;;;;0.90;0.70;;;13.00;99.90;;;;;;5073024;28;20220;-70
2022/06/21 00:34:19;;;;;;;1.00;0.90;;;12.90;99.90;;;;;;5072958;28;20483;-71
2022/06/21 00:36:46;;;;;;;1.00;0.67;;;12.90;99.90;;;;;;5086527;28;20524;-71
2022/06/21 00:39:17;;;;;;;1.00;0.77;;;12.90;99.90;;;;;;5092992;28;20415;-71
2022/06/21 00:41:49;;;;;;;1.00;0.80;;;12.80;99.90;;;;;;5093118;28;20766;-71
2022/06/21 00:44:20;;;;;;;0.90;0.70;;;12.80;99.90;;;;;;5092775;28;20423;-71
2022/06/21 00:46:51;;;;;;;1.10;0.80;;;12.80;99.90;;;;;;5092895;28;20432;-71
2022/06/21 00:49:29;;;;;;;1.20;0.80;;;12.80;99.90;;;;;;5090226;28;20470;-71
2022/06/21 00:52:16;;;;;;;1.20;1.00;;;12.70;99.90;;;;;;5091162;28;20423;-71
2022/06/21 00:55:03;;;;;;;1.10;0.80;;;12.70;99.90;;;;;;5092539;28;20948;-71
2022/06/21 00:57:50;;;;;;;1.20;0.77;;;12.70;99.90;;;;;;5092725;28;20423;-71
2022/06/21 01:00:36;;;;;;;1.00;0.80;;;12.70;99.90;;;;;;5092832;28;20415;-71
2022/06/21 01:03:07;;;;;;;0.90;0.70;;;12.60;99.90;;;;;;5092043;28;20399;-72
2022/06/21 01:05:40;;;;;;;1.17;0.80;;;12.60;99.90;;;;;;5073047;28;20923;-71
2022/06/21 01:08:08;;;;;;;1.50;1.00;;;12.60;99.90;;;;;;5072348;28;20427;-71
2022/06/21 01:10:34;;;;;;;1.00;0.80;;;12.60;99.90;;;;;;5071012;28;20447;-71
2022/06/21 01:13:11;;;;;;;0.90;0.60;;;12.50;99.90;;;;;;5072357;28;20437;-71
2022/06/21 01:15:43;;;;;;;1.40;0.90;;;12.50;99.90;;;;;;5071909;28;20204;-71
2022/06/21 01:18:09;;;;;;;1.13;0.77;;;12.50;99.90;;;;;;5078311;28;21013;-71
2022/06/21 01:20:39;;;;;;;1.00;0.70;;;12.50;99.90;;;;;;5092054;28;20422;-71
2022/06/21 01:23:22;;;;;;;1.30;0.80;;;12.50;99.90;;;;;;5092404;28;20528;-70
2022/06/21 01:26:07;;;;;;;1.20;0.90;;;12.40;99.90;;;;;;5092038;28;20410;-71
2022/06/21 01:28:33;;;;;;;0.90;0.70;;;12.40;99.90;;;;;;5092136;28;20486;-71
2022/06/21 01:31:00;;;;;;;3.00;1.00;;;12.40;99.90;;;;;;5092245;28;20395;-71
2022/06/21 01:33:29;;;;;;;0.90;0.70;;;12.40;99.90;;;;;;5074240;28;20971;-71
2022/06/21 01:35:58;;;;;;;0.90;0.60;;;12.40;99.90;;;;;;5071707;28;20404;-71
2022/06/21 01:38:34;;;;;;;1.50;0.90;;;12.30;99.90;;;;;;5082620;28;20532;-71
2022/06/21 01:41:07;;;;;;;1.10;0.80;;;12.30;99.90;;;;;;5092244;28;20404;-71
2022/06/21 01:43:34;;;;;;;1.10;0.70;;;12.30;99.90;;;;;;5092142;28;20481;-71
2022/06/21 01:46:06;;;;;;;1.40;1.23;;;12.30;99.90;;;;;;5084434;28;20558;-71
2022/06/21 01:48:40;;;;;;;1.10;0.90;;;12.30;99.90;;;;;;5090597;28;20458;-71
2022/06/21 01:51:14;;;;;;;1.00;0.80;;;12.20;99.90;;;;;;5092118;28;20415;-71
2022/06/21 01:53:41;;;;;;;1.00;0.70;;;12.20;99.90;;;;;;5091909;28;20420;-71
2022/06/21 01:56:11;;;;;;;1.20;0.90;;;12.20;99.90;;;;;;5091698;28;20404;-71
2022/06/21 01:58:41;;;;;;;1.43;0.80;;;12.20;99.90;;;;;;5075284;28;20452;-71
2022/06/21 02:01:43;;;;;;;1.00;0.90;;;12.20;99.90;;;;;;5071995;28;20446;-71
2022/06/21 02:04:11;;;;;;;1.40;1.30;;;12.10;99.90;;;;;;5061284;28;20432;-71
2022/06/21 02:06:41;;;;;;;1.60;1.23;;;12.10;99.90;;;;;;5071550;28;20481;-71
2022/06/21 02:09:15;;;;;;;1.20;1.10;;;12.10;99.90;;;;;;5073284;28;20833;-70
2022/06/21 02:11:47;;;;;;;1.30;0.90;;;12.00;99.90;;;;;;5091916;28;20414;-70
2022/06/21 02:14:30;;;;;;;1.67;1.00;;;12.10;99.90;;;;;;5092355;28;20402;-70
2022/06/21 02:17:18;;;;;;;1.27;0.97;;;12.00;99.90;;;;;;5095297;28;20512;-70
2022/06/21 02:19:49;;;;;;;1.10;1.00;;;12.00;99.90;;;;;;5095840;28;20415;-70
2022/06/21 02:22:18;;;;;;;1.00;0.70;;;12.00;99.90;;;;;;5095868;28;20752;-70
2022/06/21 02:24:44;;;;;;;1.20;0.70;;;12.00;99.90;;;;;;5079119;28;20516;-70
2022/06/21 02:27:13;;;;;;;1.00;0.70;;;11.90;99.90;;;;;;5075865;28;20435;-71
2022/06/21 02:29:40;;;;;;;0.90;0.70;;;11.90;99.90;;;;;;5075282;28;20451;-70
2022/06/21 02:32:14;;;;;;;1.30;1.10;;;11.90;99.90;;;;;;5075416;28;20434;-70
2022/06/21 02:34:42;;;;;;;1.43;0.77;;;11.90;99.90;;;;;;5075026;28;20408;-70
2022/06/21 02:37:09;;;;;;;1.40;1.00;;;11.80;99.90;;;;;;5078336;28;20504;-70
2022/06/21 02:39:36;;;;;;;1.00;0.70;;;11.80;99.90;;;;;;5094500;28;21101;-70
2022/06/21 02:42:08;;;;;;;1.30;0.90;;;11.80;99.90;;;;;;5095416;28;20403;-70
2022/06/21 02:45:03;;;;;;;1.00;0.67;;;11.80;99.90;;;;;;5095169;28;20422;-70
2022/06/21 02:47:35;;;;;;;1.53;0.77;;;11.70;99.90;;;;;;5093046;28;20486;-70
2022/06/21 02:50:19;;;;;;;1.00;0.70;;;11.70;99.90;;;;;;5095076;28;20450;-70
2022/06/21 02:52:46;;;;;;;0.97;0.70;;;11.70;99.90;;;;;;5078579;28;20408;-70
2022/06/21 02:55:17;;;;;;;1.00;0.80;;;11.70;99.90;;;;;;5074548;28;20835;-70
2022/06/21 02:57:55;;;;;;;1.00;0.70;;;11.60;99.90;;;;;;5074755;28;20847;-70
2022/06/21 03:00:20;;;;;;;1.10;0.70;;;11.60;99.90;;;;;;5074900;28;20916;-70
2022/06/21 03:02:47;;;;;;;1.10;0.77;;;11.60;99.90;;;;;;5074534;28;20487;-70
2022/06/21 03:05:19;;;;;;;1.00;0.70;;;11.60;99.90;;;;;;5077902;28;20284;-70
2022/06/21 03:07:53;;;;;;;1.70;1.03;;;11.50;99.90;;;;;;5094843;28;20427;-70
2022/06/21 03:10:25;;;;;;;2.53;1.00;;;11.50;99.90;;;;;;5094765;28;20456;-70
2022/06/21 03:13:03;;;;;;;0.93;0.80;;;11.50;99.90;;;;;;5094918;28;20400;-70
2022/06/21 03:15:30;;;;;;;1.30;1.03;;;11.50;99.90;;;;;;5094699;28;20411;-70
2022/06/21 03:18:01;;;;;;;1.60;0.90;;;11.40;99.90;;;;;;5094660;28;20428;-70
2022/06/21 03:20:28;;;;;;;1.00;0.80;;;11.40;99.90;;;;;;5079862;28;20489;-70
2022/06/21 03:22:54;;;;;;;2.00;1.13;;;11.40;99.90;;;;;;5074418;28;20407;-70
2022/06/21 03:25:41;;;;;;;1.83;1.20;;;11.40;99.90;;;;;;5073967;28;20850;-73
2022/06/21 03:28:24;;;;;;;1.47;1.27;;;11.40;99.90;;;;;;5073970;28;20422;-71
2022/06/21 03:30:57;;;;;;;1.80;0.83;;;11.40;99.90;;;;;;5074216;28;20409;-70
2022/06/21 03:33:23;;;;;;;1.20;1.10;;;11.30;99.90;;;;;;5078397;28;20506;-70
2022/06/21 03:35:50;;;;;;;1.33;1.20;;;11.30;99.90;;;;;;5094038;28;20502;-70
2022/06/21 03:38:15;;;;;;;1.13;0.77;;;11.30;99.90;;;;;;5094294;28;20439;-70
2022/06/21 03:43:33;;;;;;;1.30;1.07;;;11.30;99.90;;;;;;5094335;28;20230;-70
2022/06/21 03:46:04;;;;;;;1.10;0.90;;;11.30;99.90;;;;;;5096659;28;20436;-70
2022/06/21 03:49:05;;;;;;;1.20;1.07;;;11.30;99.90;;;;;;5094211;28;20482;-71
2022/06/21 03:51:39;;;;;;;1.37;0.87;;;11.30;99.90;;;;;;5086071;28;20415;-72
2022/06/21 03:54:22;;;;;;;1.20;0.90;;;11.30;99.90;;;;;;5084957;28;20439;-72
2022/06/21 03:56:53;;;;;;;2.90;0.90;;;11.30;99.90;;;;;;5086661;28;20507;-71
2022/06/21 03:59:22;;;;;;;1.37;1.03;;;11.30;99.90;;;;;;5086061;28;20463;-72
2022/06/21 04:02:00;;;;;;;1.40;0.90;;;11.30;99.90;;;;;;5085945;28;20421;-71
2022/06/21 04:04:43;;;;;;;1.40;0.90;;;11.40;99.90;;;;;;5082356;28;20416;-71
2022/06/21 04:07:14;;;;;;;1.00;0.73;;;11.40;99.90;;;;;;5074882;28;20443;-71
2022/06/21 04:10:01;;;;;;;1.40;0.80;;;11.40;99.90;;;;;;5073364;28;20606;-70
2022/06/21 04:12:51;;;;;;;3.63;1.83;;;11.40;99.90;;;;;;5073376;28;20401;-71
2022/06/21 04:15:23;;;;;;;1.97;1.53;;;11.50;99.90;;;;;;5073180;28;20401;-71
2022/06/21 04:17:51;;;;;;;2.37;1.37;;;11.50;99.90;;;;;;5090009;28;20463;-71
2022/06/21 04:20:33;;;;;;;1.77;1.20;;;11.50;99.90;;;;;;5093407;28;20831;-71
2022/06/21 04:23:24;;;;;;;1.50;1.00;;;11.60;99.90;;;;;;5093542;28;20410;-70
2022/06/21 04:26:06;;;;;;;1.53;1.13;;;11.60;99.90;;;;;;5093240;28;20404;-70
2022/06/21 04:28:55;;;;;;;1.33;1.10;;;11.70;99.90;;;;;;5093333;28;20969;-70
2022/06/21 04:31:37;;;;;;;1.03;0.73;;;11.80;99.90;;;;;;5079049;28;20495;-70
2022/06/21 04:34:18;;;;;;;2.03;1.30;;;11.80;99.90;;;;;;5073023;28;20399;-70
2022/06/21 04:36:52;;;;;;;1.40;1.20;;;11.80;99.90;;;;;;5084392;28;20498;-72
2022/06/21 04:39:28;;;;;;;1.10;0.77;;;11.90;99.90;;;;;;5073359;28;20500;-70
2022/06/21 04:42:08;;;;;;;1.00;0.83;;;12.00;99.90;;;;;;5083521;28;20398;-71
2022/06/21 04:44:41;;;;;;;1.10;0.93;;;12.10;99.90;;;;;;5090597;28;20419;-71
2022/06/21 04:47:17;;;;;;;1.73;0.80;;;12.20;99.90;;;;;;5103508;28;20435;-72
2022/06/21 04:49:48;;;;;;;1.67;0.80;;;12.20;99.90;;;;;;5093297;28;20466;-71
2022/06/21 04:52:27;;;;;;;1.70;0.80;;;12.30;99.90;;;;;;5102888;28;20416;-71
2022/06/21 04:54:53;;;;;;;1.20;0.70;;;12.40;99.90;;;;;;5103859;28;20441;-70
2022/06/21 04:57:22;;;;;;;1.00;0.67;;;12.50;99.90;;;;;;5102714;28;20432;-72
2022/06/21 05:00:03;;;;;;;1.00;0.60;;;12.60;99.90;;;;;;5073294;28;20170;-70
2022/06/21 05:02:40;;;;;;;1.83;1.07;;;12.70;99.90;;;;;;5072535;28;20503;-70
2022/06/21 05:05:18;;;;;;;1.53;1.27;;;12.80;99.90;;;;;;5075240;28;20404;-71
2022/06/21 05:07:51;;;;;;;1.20;0.87;;;12.90;99.90;;;;;;5083500;28;20424;-71
2022/06/21 05:10:23;;;;;;;1.30;1.07;;;13.00;99.90;;;;;;5083077;28;20473;-72
2022/06/21 05:12:51;;;;;;;1.00;0.77;;;13.10;99.90;;;;;;5082561;28;20423;-71
2022/06/21 05:15:28;;;;;;;1.57;1.03;;;13.10;99.90;;;;;;5077924;28;20864;-70
2022/06/21 05:18:07;;;;;;;1.10;0.90;;;13.20;99.90;;;;;;5072165;28;20420;-71
2022/06/21 05:20:37;;;;;;;1.20;0.83;;;13.40;99.90;;;;;;5072319;28;20393;-70
2022/06/21 05:23:05;;;;;;;1.17;1.00;;;13.50;99.90;;;;;;5072156;28;20422;-70
2022/06/21 05:25:36;;;;;;;1.23;1.13;;;13.60;99.90;;;;;;5071083;28;20396;-70
2022/06/21 05:28:28;;;;;;;1.03;0.80;;;13.60;99.90;;;;;;5092282;28;20498;-71
2022/06/21 05:31:03;;;;;;;2.27;1.40;;;13.80;99.90;;;;;;5092322;28;20407;-71
2022/06/21 05:33:34;;;;;;;1.40;1.23;;;13.90;99.90;;;;;;5092253;28;20422;-71
2022/06/21 05:36:02;;;;;;;2.07;1.87;;;14.00;99.90;;;;;;5100050;28;20414;-71
2022/06/21 05:38:31;;;;;;;7.73;1.93;;;14.10;99.90;;;;;;5099817;28;20416;-71
2022/06/21 05:41:00;;;;;;;1.93;1.80;;;14.20;99.90;;;;;;5076923;28;20867;-70
2022/06/21 05:43:39;;;;;;;2.57;2.17;;;14.30;99.90;;;;;;5071909;28;20416;-72
2022/06/21 05:46:15;;;;;;;4.60;2.17;;;14.40;99.90;;;;;;5071666;28;20400;-72
2022/06/21 05:48:42;;;;;;;2.60;2.40;;;14.50;99.90;;;;;;5071621;28;20443;-71
2022/06/21 05:51:16;;;;;;;4.13;2.27;;;14.70;99.90;;;;;;5071771;28;20404;-71
2022/06/21 05:53:49;;;;;;;3.90;3.10;;;14.80;99.90;;;;;;5076229;28;20504;-71
2022/06/21 05:56:19;;;;;;;3.13;2.80;;;15.00;99.90;;;;;;5091844;28;20514;-71
2022/06/21 05:58:59;;;;;;;3.87;3.50;;;15.30;99.90;;;;;;5090784;28;21009;-71
2022/06/21 06:01:32;;;;;;;3.77;2.90;;;15.70;99.90;;;;;;5091948;28;20429;-71
2022/06/21 06:04:07;;;;;;;3.20;2.83;;;16.10;99.90;;;;;;5091919;28;20436;-71
2022/06/21 06:06:36;;;;;;;3.07;2.83;;;16.70;99.90;;;;;;5091715;28;20403;-72
2022/06/21 06:09:10;;;;;;;3.10;2.80;;;17.20;99.90;;;;;;5076354;28;20534;-71
2022/06/21 06:11:58;;;;;;;4.93;2.63;;;17.70;99.90;;;;;;5071765;28;20400;-71
2022/06/21 06:14:32;;;;;;;6.10;2.70;;;18.30;99.90;;;;;;5071412;28;20400;-71
2022/06/21 06:17:02;;;;;;;5.97;2.90;;;18.90;99.90;;;;;;5071400;28;20474;-71
2022/06/21 06:19:57;;;;;;;4.00;3.40;;;19.30;99.90;;;;;;5070161;28;20416;-71
2022/06/21 06:22:39;;;;;;;2.23;2.03;;;19.90;99.90;;;;;;5045633;28;20417;-71
2022/06/21 06:25:32;;;;;;;2.63;2.43;;;20.60;99.90;;;;;;5071257;28;20400;-71
2022/06/21 06:28:09;;;;;;;2.43;2.00;;;21.40;99.90;;;;;;5071425;28;20460;-71
2022/06/21 06:30:55;;;;;;;2.77;2.17;;;22.40;99.90;;;;;;5085285;28;20455;-71
2022/06/21 06:33:30;;;;;;;3.40;2.37;;;23.30;99.90;;;;;;5095531;28;20435;-70
2022/06/21 06:35:57;;;;;;;2.60;2.40;;;24.10;99.90;;;;;;5095222;28;20427;-72
2022/06/21 06:38:23;;;;;;;2.30;2.10;;;24.80;99.90;;;;;;5071355;28;20422;-72
2022/06/21 06:41:13;;;;;;;1.93;1.73;;;25.50;99.90;;;;;;5071397;28;20889;-72
2022/06/21 06:44:01;;;;;;;2.13;1.90;;;26.30;99.90;;;;;;5071410;28;20667;-72
2022/06/21 06:46:33;;;;;;;1.93;1.77;;;26.90;99.90;;;;;;5070964;28;20863;-72
2022/06/21 06:49:14;;;;;;;1.87;1.77;;;27.50;99.90;;;;;;5071241;28;20452;-71
2022/06/21 06:52:01;;;;;;;1.80;1.70;;;28.10;99.90;;;;;;5071239;28;20427;-70
2022/06/21 06:54:29;;;;;;;2.90;2.17;;;28.90;99.90;;;;;;5070860;28;20428;-71
2022/06/21 06:57:01;;;;;;;1.40;1.30;;;29.60;95.00;;;;;;5069692;28;20464;-72
2022/06/21 06:59:27;;;;;;;1.90;1.70;;;30.30;90.50;;;;;;5072269;28;20416;-72
2022/06/21 07:02:14;;;;;;;1.60;1.43;;;31.00;85.50;;;;;;5078650;28;20515;-71
2022/06/21 07:04:45;;;;;;;2.17;1.43;;;31.70;76.40;;;;;;5079381;28;20178;-71
2022/06/21 07:07:22;;;;;;;1.53;1.43;;;32.50;68.70;;;;;;5074595;28;20907;-72
2022/06/21 07:09:56;;;;;;;1.40;1.30;;;33.30;60.10;;;;;;5074534;28;20479;-71
2022/06/21 07:12:28;;;;;;;1.50;1.40;;;33.80;57.80;;;;;;5092647;28;20412;-71
2022/06/21 07:14:55;;;;;;;1.67;1.37;;;34.60;56.30;;;;;;5094446;28;20473;-71
2022/06/21 07:17:46;;;;;;;1.30;1.10;;;35.10;51.70;;;;;;5094631;28;20447;-71
2022/06/21 07:20:27;;;;;;;1.40;1.30;;;35.60;50.20;;;;;;5094896;28;20404;-72
2022/06/21 07:22:55;;;;;;;1.50;1.40;;;36.20;49.00;;;;;;5094600;28;20791;-72
2022/06/21 07:25:40;;;;;;;1.33;1.23;;;36.40;46.00;;;;;;5084782;28;20951;-72
2022/06/21 07:28:42;;;;;;;2.17;1.30;;;36.60;45.00;;;;;;5074316;28;20435;-72
2022/06/21 07:31:22;;;;;;;2.13;1.60;;;37.20;42.60;;;;;;5084836;28;20458;-72
2022/06/21 07:34:03;;;;;;;1.67;1.57;;;37.20;41.10;;;;;;5083350;28;20498;-72
2022/06/21 07:36:39;;;;;;;1.93;1.60;;;36.90;39.50;;;;;;5073356;28;20466;-70
2022/06/21 07:39:35;;;;;;;1.40;1.23;;;36.80;39.20;;;;;;5079345;28;20422;-70
2022/06/21 07:42:11;;;;;;;1.33;1.23;;;36.80;38.30;;;;;;5090129;28;20411;-70
2022/06/21 07:44:45;;;;;;;1.33;1.23;;;36.90;37.90;;;;;;5093982;28;20400;-72
2022/06/21 07:47:17;;;;;;;1.60;1.40;;;37.90;38.30;;;;;;5094126;28;20473;-72
2022/06/21 07:49:51;;;;;;;1.70;1.60;;;39.30;38.10;;;;;;5094101;28;20439;-72
2022/06/21 07:52:29;;;;;;;1.70;1.30;;;40.70;36.10;;;;;;5094062;28;20390;-71
2022/06/21 07:54:58;;;;;;;1.50;1.30;;;42.30;35.30;;;;;;5074051;28;20802;-71
2022/06/21 07:57:42;;;;;;;1.40;1.30;;;43.60;33.60;;;;;;5073768;28;20440;-71
2022/06/21 08:00:15;;;;;;;2.63;1.53;;;44.80;31.50;;;;;;5072451;28;20427;-71
2022/06/21 08:08:46;;;;;;;1.33;1.23;;;47.10;29.40;;;;;;5091694;28;20438;-72
2022/06/21 08:11:38;;;;;;;1.37;1.27;;;47.50;28.70;;;;;;5093726;28;20382;-72
2022/06/21 08:14:04;;;;;;;2.10;1.80;;;47.60;27.90;;;;;;5093467;28;20388;-72
2022/06/21 08:16:43;;;;;;;2.57;2.30;;;47.40;26.60;;;;;;5093244;28;20416;-72
2022/06/21 08:19:15;;;;;;;1.77;1.67;;;47.30;26.60;;;;;;5093939;28;20413;-74
2022/06/21 08:21:53;;;;;;;1.70;1.60;;;46.80;26.50;;;;;;5093950;28;20399;-70
2022/06/21 08:24:18;;;;;;;1.63;1.53;;;46.40;26.10;;;;;;5080071;28;20383;-71
2022/06/21 08:26:49;;;;;;;1.30;1.20;;;45.80;25.80;;;;;;5082334;28;20422;-71
2022/06/21 08:29:19;;;;;;;1.50;1.40;;;45.20;26.10;;;;;;5085323;28;20190;-71
2022/06/21 08:31:53;;;;;;;1.30;1.20;;;44.50;26.40;;;;;;5082663;28;20394;-71
2022/06/21 08:34:33;;;;;;;1.50;1.40;;;43.80;27.10;;;;;;5085194;28;20383;-70
2022/06/21 08:37:09;;;;;;;2.20;1.40;;;43.00;27.10;;;;;;5103430;28;20435;-71
2022/06/21 08:39:50;;;;;;;1.50;1.30;;;42.60;27.40;;;;;;5086067;28;20401;-73
2022/06/21 08:42:58;;;;;;;1.47;1.33;;;42.70;27.60;;;;;;5073442;28;20404;-72
2022/06/21 08:46:14;;;;;;;1.40;1.30;;;42.90;27.60;;;;;;5072623;28;20424;-72
2022/06/21 08:49:13;;;;;;;1.80;1.70;;;43.90;27.40;;;;;;5010845;28;20990;-72
2022/06/21 08:52:12;;;;;;;1.40;1.23;;;43.80;27.00;;;;;;5076666;28;20448;-73
2022/06/21 08:54:53;;;;;;;1.30;1.20;;;43.50;27.00;;;;;;5074796;28;20478;-72
2022/06/21 08:57:32;;;;;;;1.40;1.30;;;43.00;27.10;;;;;;5072553;28;20437;-70
2022/06/21 09:00:08;;;;;;;1.53;1.43;;;43.90;27.80;;;;;;5071610;28;20899;-71
2022/06/21 09:02:57;;;;;;;3.40;1.47;;;45.70;26.90;;;;;;5076038;28;20408;-73
2022/06/21 09:05:54;;;;;;;1.30;1.20;;;47.90;26.50;;;;;;5081850;28;20408;-71
2022/06/21 09:08:41;;;;;;;1.50;1.40;;;50.30;25.90;;;;;;5081235;28;20777;-72
2022/06/21 09:11:30;;;;;;;1.67;1.57;;;52.50;25.20;;;;;;5072769;28;20403;-71
2022/06/21 09:14:27;;;;;;;1.83;1.73;;;54.60;24.60;;;;;;5072275;28;20432;-71
2022/06/21 09:17:11;;;;;;;1.70;1.60;;;56.20;23.50;;;;;;5082179;28;20763;-72
2022/06/21 09:20:08;;;;;;;1.70;1.60;;;55.90;22.70;;;;;;5101635;28;20473;-71
2022/06/21 09:23:08;;;;;;;1.70;1.60;;;54.70;22.90;;;;;;5095435;28;20407;-72
2022/06/21 09:25:48;;;;;;;1.60;1.50;;;53.80;22.50;;;;;;5095534;28;20484;-72
2022/06/21 09:28:31;;;;;;;1.60;1.50;;;53.00;22.60;;;;;;5091458;28;20401;-71
2022/06/21 09:31:02;;;;;;;1.50;1.40;;;52.80;22.50;;;;;;5072103;28;20411;-72
2022/06/21 09:33:48;;;;;;;1.40;1.30;;;52.40;22.30;;;;;;5070841;28;20882;-71
2022/06/21 09:36:48;;;;;;;1.70;1.60;;;52.00;22.30;;;;;;5071699;28;20379;-70
2022/06/21 09:39:31;;;;;;;1.40;1.30;;;51.80;22.40;;;;;;5072026;28;20389;-71
2022/06/21 09:42:22;;;;;;;1.50;1.40;;;51.70;22.40;;;;;;5071956;28;20451;-71
2022/06/21 09:45:17;;;;;;;1.40;1.30;;;50.80;22.30;;;;;;5071665;28;20398;-71
2022/06/21 09:48:00;;;;;;;1.20;1.10;;;49.50;22.40;;;;;;5070564;28;20424;-70
2022/06/21 09:50:42;;;;;;;2.23;1.30;;;48.00;22.60;;;;;;5071773;28;20430;-71
2022/06/21 09:53:22;;;;;;;1.40;1.30;;;46.50;22.90;;;;;;5071734;28;20411;-71
2022/06/21 09:55:56;;;;;;;1.50;1.40;;;45.30;23.20;;;;;;5075017;28;20393;-71
2022/06/21 09:58:38;;;;;;;1.50;1.20;;;44.30;23.50;;;;;;5091853;28;20390;-70
2022/06/21 10:01:28;;;;;;;1.33;1.23;;;43.20;23.90;;;;;;5092122;28;20872;-71
2022/06/21 10:04:28;;;;;;;1.20;1.10;;;42.30;24.30;;;;;;5091951;28;20407;-71
2022/06/21 10:07:03;;;;;;;1.43;1.33;;;41.20;24.80;;;;;;5091897;28;20490;-71
2022/06/21 10:09:50;;;;;;;1.30;1.20;;;40.50;25.30;;;;;;5074465;28;20772;-70
2022/06/21 10:12:46;;;;;;;2.03;1.27;;;40.10;25.80;;;;;;5071648;28;20401;-70
2022/06/21 10:15:47;;;;;;;1.40;1.13;;;39.90;25.50;;;;;;5071386;28;20396;-71
2022/06/21 10:18:41;;;;;;;1.60;1.23;;;40.20;26.10;;;;;;5071524;28;20431;-70
2022/06/21 10:21:20;;;;;;;1.27;1.17;;;40.40;26.40;;;;;;5083959;28;20423;-70
2022/06/21 10:24:14;;;;;;;1.57;1.47;;;40.40;26.30;;;;;;5091752;28;20818;-70
2022/06/21 10:27:10;;;;;;;1.17;1.07;;;40.20;26.30;;;;;;5091609;28;20836;-70
2022/06/21 10:30:16;;;;;;;1.67;1.57;;;39.80;26.40;;;;;;5091689;28;20443;-71
2022/06/21 10:33:11;;;;;;;1.30;1.20;;;39.20;26.30;;;;;;5091607;28;20391;-69
2022/06/21 10:35:43;;;;;;;2.00;1.50;;;38.80;26.70;;;;;;5080051;28;20412;-71
2022/06/21 10:38:32;;;;;;;1.33;1.20;;;38.50;26.90;;;;;;5075178;28;20416;-70
2022/06/21 10:41:11;;;;;;;1.10;1.00;;;38.30;27.30;;;;;;5075140;28;20787;-70
2022/06/21 10:43:46;;;;;;;1.30;1.10;;;38.10;27.40;;;;;;5075237;28;20384;-70
2022/06/21 10:46:22;;;;;;;1.60;1.27;;;37.90;27.60;;;;;;5073629;28;20419;-70
2022/06/21 10:49:22;;;;;;;1.20;1.00;;;37.60;27.70;;;;;;5089804;28;20454;-69
2022/06/21 10:52:12;;;;;;;1.60;1.50;;;37.00;27.80;;;;;;5095383;28;20491;-70
2022/06/21 10:55:06;;;;;;;1.10;1.00;;;36.20;28.10;;;;;;5094932;28;20443;-69
2022/06/21 10:57:58;;;;;;;1.43;1.33;;;35.30;28.60;;;;;;5095060;28;20419;-71
2022/06/21 11:01:21;;;;;;;1.60;1.43;;;34.40;29.00;;;;;;5093840;28;20411;-70
2022/06/21 11:04:19;;;;;;;1.67;1.43;;;33.70;29.70;;;;;;5074824;28;20834;-70
2022/06/21 11:06:59;;;;;;;1.53;1.10;;;33.20;30.30;;;;;;5074744;28;20420;-70
2022/06/21 11:09:42;;;;;;;1.20;1.10;;;33.00;31.00;;;;;;5074717;28;20455;-70
2022/06/21 11:15:44;;;;;;;1.40;1.30;;;34.90;31.70;;;;;;5074611;28;20467;-71
2022/06/21 11:18:15;;;;;;;1.57;1.20;;;36.40;30.30;;;;;;5074530;28;20421;-71
2022/06/21 11:20:53;;;;;;;1.63;1.30;;;38.40;30.00;;;;;;5074529;28;20495;-71
2022/06/21 11:23:38;;;;;;;1.80;1.20;;;40.20;29.20;;;;;;5073131;28;20922;-72
2022/06/21 11:26:21;;;;;;;1.40;1.30;;;42.20;28.70;;;;;;5074201;28;20401;-72
2022/06/21 11:29:00;;;;;;;2.17;1.20;;;43.90;27.30;;;;;;5074334;28;20451;-71
2022/06/21 11:31:40;;;;;;;1.70;1.50;;;45.60;26.60;;;;;;5088884;28;20827;-72
2022/06/21 11:34:23;;;;;;;1.60;1.50;;;46.20;26.00;;;;;;5093289;28;20418;-72
2022/06/21 11:37:12;;;;;;;1.70;1.60;;;46.70;25.60;;;;;;5094418;28;20398;-72
2022/06/21 11:39:43;;;;;;;2.03;1.83;;;47.90;25.40;;;;;;5094372;28;20399;-72
2022/06/21 11:42:25;;;;;;;1.93;1.63;;;49.30;24.70;;;;;;5094350;28;20370;-72
2022/06/21 11:44:53;;;;;;;2.00;1.80;;;50.60;24.20;;;;;;5083401;28;20391;-71
2022/06/21 11:47:34;;;;;;;1.50;1.40;;;51.10;23.40;;;;;;5073324;28;21063;-71
2022/06/21 11:50:16;;;;;;;1.50;1.40;;;50.70;22.90;;;;;;5073965;28;20477;-72
2022/06/21 11:53:13;;;;;;;1.47;1.37;;;50.20;23.40;;;;;;5073961;28;20418;-71
2022/06/21 11:55:45;;;;;;;1.60;1.50;;;49.80;23.20;;;;;;5073508;28;20387;-72
2022/06/21 11:58:35;;;;;;;3.00;2.00;;;50.00;22.90;;;;;;5079585;28;20402;-72
2022/06/21 12:01:17;;;;;;;1.87;1.77;;;51.00;22.20;;;;;;5093721;28;20412;-72
2022/06/21 12:04:02;;;;;;;1.93;1.83;;;51.70;21.90;;;;;;5094161;28;20374;-72
2022/06/21 12:06:45;;;;;;;2.10;1.70;;;52.90;22.40;;;;;;5093380;28;20474;-72
2022/06/21 12:09:21;;;;;;;1.80;1.70;;;54.20;22.50;;;;;;5093795;28;20447;-73
2022/06/21 12:11:52;;;;;;;1.70;1.60;;;55.40;22.20;;;;;;5090006;28;20391;-73
2022/06/21 12:14:18;;;;;;;1.90;1.80;;;56.40;22.00;;;;;;5073137;28;20411;-73
2022/06/21 12:16:57;;;;;;;1.87;1.77;;;56.90;21.60;;;;;;5073341;28;20785;-72
2022/06/21 12:19:32;;;;;;;1.93;1.83;;;56.20;21.30;;;;;;5073695;28;20693;-73
2022/06/21 12:22:11;;;;;;;2.47;1.80;;;54.90;21.10;;;;;;5073389;28;20489;-72
2022/06/21 12:24:38;;;;;;;1.53;1.43;;;53.30;21.10;;;;;;5073036;28;20404;-72
2022/06/21 12:27:10;;;;;;;1.70;1.60;;;51.60;21.20;;;;;;5088831;28;20417;-73
2022/06/21 12:29:36;;;;;;;1.90;1.77;;;50.10;21.60;;;;;;5093390;28;20441;-72
2022/06/21 12:32:05;;;;;;;1.70;1.60;;;48.80;22.00;;;;;;5093374;28;20396;-72
2022/06/21 12:34:47;;;;;;;1.87;1.77;;;47.90;22.60;;;;;;5093010;28;20192;-72
2022/06/21 12:37:20;;;;;;;1.53;1.43;;;48.20;23.10;;;;;;5093224;28;20394;-72
2022/06/21 12:40:12;;;;;;;1.40;1.30;;;48.30;23.00;;;;;;5085212;28;20399;-72
2022/06/21 12:43:08;;;;;;;1.27;1.17;;;47.60;23.00;;;;;;5073038;28;20387;-72
2022/06/21 12:45:48;;;;;;;1.53;1.33;;;46.40;23.30;;;;;;5072580;28;20379;-72
2022/06/21 12:48:29;;;;;;;1.53;1.43;;;45.10;23.50;;;;;;5072654;28;20790;-71
2022/06/21 12:51:11;;;;;;;1.67;1.30;;;44.30;23.90;;;;;;5071499;28;20420;-72
2022/06/21 12:53:55;;;;;;;1.83;1.43;;;43.70;24.10;;;;;;5074348;28;20485;-72
2022/06/21 12:56:31;;;;;;;1.40;1.30;;;43.90;24.70;;;;;;5092644;28;20404;-72
2022/06/21 12:59:08;;;;;;;1.30;1.20;;;44.60;24.80;;;;;;5092018;28;20399;-73
2022/06/21 13:01:53;;;;;;;1.43;1.33;;;44.90;24.70;;;;;;5092789;28;20431;-72
2022/06/21 13:05:00;;;;;;;1.43;1.33;;;45.10;24.60;;;;;;5092498;28;20479;-72
2022/06/21 13:07:51;;;;;;;2.07;1.97;;;45.00;24.70;;;;;;5090908;28;20431;-71
2022/06/21 13:10:54;;;;;;;1.50;1.30;;;44.50;24.60;;;;;;5063848;28;20464;-72
2022/06/21 13:13:31;;;;;;;1.60;1.50;;;43.90;24.60;;;;;;5072349;28;20401;-72
2022/06/21 13:16:15;;;;;;;1.30;1.20;;;43.20;24.80;;;;;;5071962;28;20396;-71
2022/06/21 13:19:04;;;;;;;1.30;1.20;;;42.60;24.90;;;;;;5072189;28;20421;-71
2022/06/21 13:21:33;;;;;;;1.40;1.30;;;41.80;25.10;;;;;;5072825;28;20895;-72
2022/06/21 13:24:30;;;;;;;1.63;1.53;;;41.10;25.30;;;;;;5092364;28;20403;-71
2022/06/21 13:27:22;;;;;;;1.30;1.20;;;40.40;25.40;;;;;;5092435;28;20553;-71
2022/06/21 13:29:59;;;;;;;1.20;1.10;;;39.80;25.80;;;;;;5092246;28;20439;-71
2022/06/21 13:32:29;;;;;;;1.50;1.30;;;39.30;26.00;;;;;;5092332;28;20395;-71
2022/06/21 13:35:24;;;;;;;1.40;1.30;;;39.00;26.30;;;;;;5092054;28;20450;-71
2022/06/21 13:38:07;;;;;;;1.30;1.20;;;38.70;26.50;;;;;;5072470;28;20512;-71
2022/06/21 13:40:55;;;;;;;1.20;1.10;;;38.40;26.80;;;;;;5072070;28;20741;-72
2022/06/21 13:43:42;;;;;;;1.37;1.23;;;38.10;26.90;;;;;;5072025;28;20450;-70
2022/06/21 13:46:21;;;;;;;1.37;1.20;;;37.80;27.10;;;;;;5071698;28;20432;-72
2022/06/21 13:48:55;;;;;;;1.30;1.20;;;37.60;27.20;;;;;;5071767;28;20483;-71
2022/06/21 13:51:37;;;;;;;1.37;1.13;;;37.30;27.30;;;;;;5086740;28;20407;-71
2022/06/21 13:54:28;;;;;;;1.40;1.30;;;37.00;27.50;;;;;;5092005;28;20883;-71
2022/06/21 13:57:01;;;;;;;1.20;1.10;;;36.80;27.70;;;;;;5091988;28;20412;-71
2022/06/21 13:59:31;;;;;;;1.30;1.20;;;36.50;27.90;;;;;;5091995;28;20396;-71